sensor_id;sensor_type;location;lat;lon;timestamp;P1;P2;P0
49686;PMS5003;36064;38.180;-122.272;2022-09-12T00:00:01;18.6;18.4;
49686;PMS5003;36064;38.180;-122.272;2022-09-12T00:05:00;18.0;15.6;
49686;PMS5003;36064;38.180;-122.272;2022-09-12T00:10:00;16.6;16.2;
49686;PMS5003;36064;38.180;-122.272;2022-09-12T00:15:00;18.2;17.8;
49686;PMS5003;36064;38.180;-122.272;2022-09-12T00:20:01;14.2;13.0;
49686;PMS5003;36064;38.180;-122.272;2022-09-12T00:25:00;13.4;12.6;
49686;PMS5003;36064;38.180;-122.272;2022-09-12T00:30:00;14.0;12.4;
49686;PMS5003;36064;38.180;-122.272;2022-09-12T00:35:01;13.8;13.0;
49686;PMS5003;36064;38.180;-122.272;2022-09-12T00:40:00;14.2;13.6;
49686;PMS5003;36064;38.180;-122.272;2022-09-12T00:45:00;14.4;14.0;
49686;PMS5003;36064;38.180;-122.272;2022-09-12T00:50:03;17.4;15.6;
49686;PMS5003;36064;38.180;-122.272;2022-09-12T00:55:02;16.4;13.6;
49686;PMS5003;36064;38.180;-122.272;2022-09-12T01:00:03;14.0;13.6;
49686;PMS5003;36064;38.180;-122.272;2022-09-12T01:05:00;19.2;18.0;
49686;PMS5003;36064;38.180;-122.272;2022-09-12T01:10:00;27.0;25.8;
49686;PMS5003;36064;38.180;-122.272;2022-09-12T01:15:00;30.6;28.0;
49686;PMS5003;36064;38.180;-122.272;2022-09-12T01:20:10;33.6;30.8;
49686;PMS5003;36064;38.180;-122.272;2022-09-12T01:25:03;37.2;32.6;
49686;PMS5003;36064;38.180;-122.272;2022-09-12T01:30:04;31.2;28.0;
49686;PMS5003;36064;38.180;-122.272;2022-09-12T01:35:03;33.2;28.8;
49686;PMS5003;36064;38.180;-122.272;2022-09-12T01:40:02;32.4;30.2;
49686;PMS5003;36064;38.180;-122.272;2022-09-12T01:45:02;30.2;28.4;
49686;PMS5003;36064;38.180;-122.272;2022-09-12T01:50:02;29.8;28.4;
49686;PMS5003;36064;38.180;-122.272;2022-09-12T01:55:03;28.4;26.4;
49686;PMS5003;36064;38.180;-122.272;2022-09-12T02:00:03;28.8;27.2;
49686;PMS5003;36064;38.180;-122.272;2022-09-12T02:05:01;25.6;23.4;
49686;PMS5003;36064;38.180;-122.272;2022-09-12T02:10:02;23.2;20.8;
49686;PMS5003;36064;38.180;-122.272;2022-09-12T02:15:01;23.6;22.0;
49686;PMS5003;36064;38.180;-122.272;2022-09-12T02:20:02;20.4;18.2;
49686;PMS5003;36064;38.180;-122.272;2022-09-12T02:25:00;22.8;22.2;
49686;PMS5003;36064;38.180;-122.272;2022-09-12T02:30:01;26.6;24.4;
49686;PMS5003;36064;38.180;-122.272;2022-09-12T02:35:02;24.4;19.6;
49686;PMS5003;36064;38.180;-122.272;2022-09-12T02:40:00;22.2;20.4;
49686;PMS5003;36064;38.180;-122.272;2022-09-12T02:45:00;20.2;18.6;
49686;PMS5003;36064;38.180;-122.272;2022-09-12T02:50:00;21.0;20.2;
49686;PMS5003;36064;38.180;-122.272;2022-09-12T02:55:00;23.4;21.0;
49686;PMS5003;36064;38.180;-122.272;2022-09-12T03:00:01;24.6;21.2;
49686;PMS5003;36064;38.180;-122.272;2022-09-12T03:05:10;21.0;19.4;
49686;PMS5003;36064;38.180;-122.272;2022-09-12T03:10:02;24.6;23.0;
49686;PMS5003;36064;38.180;-122.272;2022-09-12T03:15:05;22.4;21.4;
49686;PMS5003;36064;38.180;-122.272;2022-09-12T03:20:02;18.6;17.6;
49686;PMS5003;36064;38.180;-122.272;2022-09-12T03:25:03;19.4;18.8;
49686;PMS5003;36064;38.180;-122.272;2022-09-12T03:30:01;21.2;20.2;
49686;PMS5003;36064;38.180;-122.272;2022-09-12T03:35:00;22.2;21.2;
49686;PMS5003;36064;38.180;-122.272;2022-09-12T03:40:00;22.6;19.8;
49686;PMS5003;36064;38.180;-122.272;2022-09-12T03:45:00;21.0;21.2;
49686;PMS5003;36064;38.180;-122.272;2022-09-12T03:50:00;19.4;17.4;
49686;PMS5003;36064;38.180;-122.272;2022-09-12T03:55:00;18.0;16.2;
49686;PMS5003;36064;38.180;-122.272;2022-09-12T04:00:00;23.4;20.8;
49686;PMS5003;36064;38.180;-122.272;2022-09-12T04:05:00;21.8;20.6;
49686;PMS5003;36064;38.180;-122.272;2022-09-12T04:10:00;19.4;18.6;
49686;PMS5003;36064;38.180;-122.272;2022-09-12T04:15:00;16.4;17.4;
49686;PMS5003;36064;38.180;-122.272;2022-09-12T04:20:00;21.2;18.8;
49686;PMS5003;36064;38.180;-122.272;2022-09-12T04:25:00;23.4;20.2;
49686;PMS5003;36064;38.180;-122.272;2022-09-12T04:30:00;21.2;20.4;
49686;PMS5003;36064;38.180;-122.272;2022-09-12T04:35:01;20.4;18.0;
49686;PMS5003;36064;38.180;-122.272;2022-09-12T04:40:01;20.2;19.2;
49686;PMS5003;36064;38.180;-122.272;2022-09-12T04:45:00;21.0;18.2;
49686;PMS5003;36064;38.180;-122.272;2022-09-12T04:50:00;19.6;17.2;
49686;PMS5003;36064;38.180;-122.272;2022-09-12T04:55:00;16.6;14.6;
49686;PMS5003;36064;38.180;-122.272;2022-09-12T05:00:01;18.8;17.4;
49686;PMS5003;36064;38.180;-122.272;2022-09-12T05:05:00;18.8;17.6;
49686;PMS5003;36064;38.180;-122.272;2022-09-12T05:10:00;19.6;18.2;
49686;PMS5003;36064;38.180;-122.272;2022-09-12T05:15:00;19.4;18.8;
49686;PMS5003;36064;38.180;-122.272;2022-09-12T05:20:01;18.6;17.4;
49686;PMS5003;36064;38.180;-122.272;2022-09-12T05:25:00;18.8;16.6;
49686;PMS5003;36064;38.180;-122.272;2022-09-12T05:30:00;17.2;15.6;
49686;PMS5003;36064;38.180;-122.272;2022-09-12T05:35:00;19.6;19.0;
49686;PMS5003;36064;38.180;-122.272;2022-09-12T05:40:00;22.0;20.2;
49686;PMS5003;36064;38.180;-122.272;2022-09-12T05:45:00;18.2;16.6;
49686;PMS5003;36064;38.180;-122.272;2022-09-12T05:50:00;24.0;20.2;
49686;PMS5003;36064;38.180;-122.272;2022-09-12T05:55:00;21.4;19.8;
49686;PMS5003;36064;38.180;-122.272;2022-09-12T06:00:01;17.8;15.4;
49686;PMS5003;36064;38.180;-122.272;2022-09-12T06:05:00;20.4;18.6;
49686;PMS5003;36064;38.180;-122.272;2022-09-12T06:10:00;19.4;19.0;
49686;PMS5003;36064;38.180;-122.272;2022-09-12T06:15:00;18.6;18.6;
49686;PMS5003;36064;38.180;-122.272;2022-09-12T06:20:00;17.2;16.4;
49686;PMS5003;36064;38.180;-122.272;2022-09-12T06:25:00;17.4;16.4;
49686;PMS5003;36064;38.180;-122.272;2022-09-12T06:30:00;21.8;21.2;
49686;PMS5003;36064;38.180;-122.272;2022-09-12T06:35:00;18.4;17.4;
49686;PMS5003;36064;38.180;-122.272;2022-09-12T06:40:00;18.6;17.0;
49686;PMS5003;36064;38.180;-122.272;2022-09-12T06:45:00;18.2;16.0;
49686;PMS5003;36064;38.180;-122.272;2022-09-12T06:50:00;18.0;16.0;
49686;PMS5003;36064;38.180;-122.272;2022-09-12T06:55:00;16.4;15.8;
49686;PMS5003;36064;38.180;-122.272;2022-09-12T07:00:01;17.6;15.8;
49686;PMS5003;36064;38.180;-122.272;2022-09-12T07:05:01;14.6;13.0;
49686;PMS5003;36064;38.180;-122.272;2022-09-12T07:10:00;20.6;19.4;
49686;PMS5003;36064;38.180;-122.272;2022-09-12T07:15:00;15.2;15.2;
49686;PMS5003;36064;38.180;-122.272;2022-09-12T07:20:01;21.6;18.0;
49686;PMS5003;36064;38.180;-122.272;2022-09-12T07:25:00;15.8;14.4;
49686;PMS5003;36064;38.180;-122.272;2022-09-12T07:30:00;20.8;18.2;
49686;PMS5003;36064;38.180;-122.272;2022-09-12T07:35:00;19.6;16.0;
49686;PMS5003;36064;38.180;-122.272;2022-09-12T07:40:01;18.2;15.2;
49686;PMS5003;36064;38.180;-122.272;2022-09-12T07:45:00;13.4;12.8;
49686;PMS5003;36064;38.180;-122.272;2022-09-12T07:50:01;15.0;18.8;
49686;PMS5003;36064;38.180;-122.272;2022-09-12T07:55:00;18.4;16.4;
49686;PMS5003;36064;38.180;-122.272;2022-09-12T08:00:01;16.6;14.0;
49686;PMS5003;36064;38.180;-122.272;2022-09-12T08:05:00;16.0;12.8;
49686;PMS5003;36064;38.180;-122.272;2022-09-12T08:10:00;16.8;14.4;
49686;PMS5003;36064;38.180;-122.272;2022-09-12T08:15:00;15.2;14.0;
49686;PMS5003;36064;38.180;-122.272;2022-09-12T08:20:01;17.0;14.4;
49686;PMS5003;36064;38.180;-122.272;2022-09-12T08:25:00;18.4;16.4;
49686;PMS5003;36064;38.180;-122.272;2022-09-12T08:30:00;18.4;17.6;
49686;PMS5003;36064;38.180;-122.272;2022-09-12T08:35:00;20.0;19.2;
49686;PMS5003;36064;38.180;-122.272;2022-09-12T08:40:01;16.0;15.4;
49686;PMS5003;36064;38.180;-122.272;2022-09-12T08:45:04;20.0;18.6;
49686;PMS5003;36064;38.180;-122.272;2022-09-12T08:50:04;18.2;17.6;
49686;PMS5003;36064;38.180;-122.272;2022-09-12T08:55:01;17.6;17.6;
49686;PMS5003;36064;38.180;-122.272;2022-09-12T09:00:02;17.6;15.2;
49686;PMS5003;36064;38.180;-122.272;2022-09-12T09:05:02;19.4;18.0;
49686;PMS5003;36064;38.180;-122.272;2022-09-12T09:10:04;23.0;20.0;
49686;PMS5003;36064;38.180;-122.272;2022-09-12T09:15:03;21.39;21.29;
49686;PMS5003;36064;38.180;-122.272;2022-09-12T09:20:03;17.0;15.2;
49686;PMS5003;36064;38.180;-122.272;2022-09-12T09:25:02;17.0;14.2;
49686;PMS5003;36064;38.180;-122.272;2022-09-12T09:30:00;20.6;18.6;
49686;PMS5003;36064;38.180;-122.272;2022-09-12T09:35:01;21.0;19.6;
49686;PMS5003;36064;38.180;-122.272;2022-09-12T09:40:02;16.6;16.0;
49686;PMS5003;36064;38.180;-122.272;2022-09-12T09:45:02;19.4;16.8;
49686;PMS5003;36064;38.180;-122.272;2022-09-12T09:50:00;22.8;20.0;
49686;PMS5003;36064;38.180;-122.272;2022-09-12T09:55:00;20.2;16.8;
49686;PMS5003;36064;38.180;-122.272;2022-09-12T10:05:00;17.0;15.8;
49686;PMS5003;36064;38.180;-122.272;2022-09-12T10:10:04;20.4;18.8;
49686;PMS5003;36064;38.180;-122.272;2022-09-12T10:15:01;21.6;19.8;
49686;PMS5003;36064;38.180;-122.272;2022-09-12T10:20:00;17.4;14.8;
49686;PMS5003;36064;38.180;-122.272;2022-09-12T10:25:00;18.4;16.0;
49686;PMS5003;36064;38.180;-122.272;2022-09-12T10:30:01;18.8;18.2;
49686;PMS5003;36064;38.180;-122.272;2022-09-12T10:35:01;18.8;17.8;
49686;PMS5003;36064;38.180;-122.272;2022-09-12T10:40:01;22.81;21.4;
49686;PMS5003;36064;38.180;-122.272;2022-09-12T10:45:00;21.41;17.21;
49686;PMS5003;36064;38.180;-122.272;2022-09-12T10:55:00;20.2;17.4;
49686;PMS5003;36064;38.180;-122.272;2022-09-12T11:00:03;21.6;19.6;
49686;PMS5003;36064;38.180;-122.272;2022-09-12T11:05:02;22.4;20.4;
49686;PMS5003;36064;38.180;-122.272;2022-09-12T11:10:02;21.4;18.6;
49686;PMS5003;36064;38.180;-122.272;2022-09-12T11:15:04;18.4;17.0;
49686;PMS5003;36064;38.180;-122.272;2022-09-12T11:20:03;22.81;22.01;
49686;PMS5003;36064;38.180;-122.272;2022-09-12T11:30:02;23.2;21.19;
49686;PMS5003;36064;38.180;-122.272;2022-09-12T11:35:02;20.2;19.8;
49686;PMS5003;36064;38.180;-122.272;2022-09-12T11:40:04;22.41;20.81;
49686;PMS5003;36064;38.180;-122.272;2022-09-12T11:45:01;20.18;18.98;
49686;PMS5003;36064;38.180;-122.272;2022-09-12T11:50:02;21.4;19.8;
49686;PMS5003;36064;38.180;-122.272;2022-09-12T11:55:01;27.8;24.6;
49686;PMS5003;36064;38.180;-122.272;2022-09-12T12:00:03;20.4;18.6;
49686;PMS5003;36064;38.180;-122.272;2022-09-12T12:05:03;21.0;20.4;
49686;PMS5003;36064;38.180;-122.272;2022-09-12T12:10:00;22.8;21.6;
49686;PMS5003;36064;38.180;-122.272;2022-09-12T12:15:00;21.2;21.8;
49686;PMS5003;36064;38.180;-122.272;2022-09-12T12:20:01;27.4;22.8;
49686;PMS5003;36064;38.180;-122.272;2022-09-12T12:25:05;23.0;21.4;
49686;PMS5003;36064;38.180;-122.272;2022-09-12T12:30:00;20.2;19.4;
49686;PMS5003;36064;38.180;-122.272;2022-09-12T12:40:06;25.2;23.6;
49686;PMS5003;36064;38.180;-122.272;2022-09-12T12:45:00;28.6;26.2;
49686;PMS5003;36064;38.180;-122.272;2022-09-12T12:50:01;23.4;20.4;
49686;PMS5003;36064;38.180;-122.272;2022-09-12T12:55:00;27.0;25.2;
49686;PMS5003;36064;38.180;-122.272;2022-09-12T13:00:02;18.8;17.8;
49686;PMS5003;36064;38.180;-122.272;2022-09-12T13:05:02;22.8;18.6;
49686;PMS5003;36064;38.180;-122.272;2022-09-12T13:10:01;21.6;20.0;
49686;PMS5003;36064;38.180;-122.272;2022-09-12T13:15:00;24.6;24.0;
49686;PMS5003;36064;38.180;-122.272;2022-09-12T13:20:02;25.8;23.6;
49686;PMS5003;36064;38.180;-122.272;2022-09-12T13:25:01;24.2;23.2;
49686;PMS5003;36064;38.180;-122.272;2022-09-12T13:30:06;24.2;23.0;
49686;PMS5003;36064;38.180;-122.272;2022-09-12T13:35:03;27.0;25.0;
49686;PMS5003;36064;38.180;-122.272;2022-09-12T13:40:03;26.99;23.4;
49686;PMS5003;36064;38.180;-122.272;2022-09-12T13:45:02;26.2;23.2;
49686;PMS5003;36064;38.180;-122.272;2022-09-12T13:50:00;28.2;25.4;
49686;PMS5003;36064;38.180;-122.272;2022-09-12T13:55:01;33.2;28.4;
49686;PMS5003;36064;38.180;-122.272;2022-09-12T14:00:03;27.6;25.6;
49686;PMS5003;36064;38.180;-122.272;2022-09-12T14:05:10;30.2;27.0;
49686;PMS5003;36064;38.180;-122.272;2022-09-12T14:10:00;25.17;25.56;
49686;PMS5003;36064;38.180;-122.272;2022-09-12T14:15:00;25.8;25.0;
49686;PMS5003;36064;38.180;-122.272;2022-09-12T14:20:02;24.2;23.4;
49686;PMS5003;36064;38.180;-122.272;2022-09-12T14:25:00;24.82;22.0;
49686;PMS5003;36064;38.180;-122.272;2022-09-12T14:30:01;28.0;26.4;
49686;PMS5003;36064;38.180;-122.272;2022-09-12T14:35:04;27.8;25.8;
49686;PMS5003;36064;38.180;-122.272;2022-09-12T14:40:00;26.6;25.6;
49686;PMS5003;36064;38.180;-122.272;2022-09-12T14:45:02;26.0;23.4;
49686;PMS5003;36064;38.180;-122.272;2022-09-12T14:50:00;28.4;25.4;
49686;PMS5003;36064;38.180;-122.272;2022-09-12T14:55:01;29.2;27.4;
49686;PMS5003;36064;38.180;-122.272;2022-09-12T15:10:01;27.79;24.21;
49686;PMS5003;36064;38.180;-122.272;2022-09-12T15:15:05;27.8;25.2;
49686;PMS5003;36064;38.180;-122.272;2022-09-12T15:20:00;32.8;28.8;
49686;PMS5003;36064;38.180;-122.272;2022-09-12T15:25:00;28.8;24.6;
49686;PMS5003;36064;38.180;-122.272;2022-09-12T15:30:00;24.2;24.0;
49686;PMS5003;36064;38.180;-122.272;2022-09-12T15:35:00;25.0;23.8;
49686;PMS5003;36064;38.180;-122.272;2022-09-12T15:40:03;27.4;24.4;
49686;PMS5003;36064;38.180;-122.272;2022-09-12T15:45:01;28.2;26.0;
49686;PMS5003;36064;38.180;-122.272;2022-09-12T15:50:00;25.0;23.8;
49686;PMS5003;36064;38.180;-122.272;2022-09-12T15:55:00;23.0;21.4;
49686;PMS5003;36064;38.180;-122.272;2022-09-12T16:00:01;29.41;28.21;
49686;PMS5003;36064;38.180;-122.272;2022-09-12T16:05:00;29.02;26.41;
49686;PMS5003;36064;38.180;-122.272;2022-09-12T16:10:00;25.2;24.45;
49686;PMS5003;36064;38.180;-122.272;2022-09-12T16:15:00;28.2;23.2;
49686;PMS5003;36064;38.180;-122.272;2022-09-12T16:20:00;26.0;24.6;
49686;PMS5003;36064;38.180;-122.272;2022-09-12T16:25:00;23.0;22.2;
49686;PMS5003;36064;38.180;-122.272;2022-09-12T16:30:00;25.58;23.39;
49686;PMS5003;36064;38.180;-122.272;2022-09-12T16:35:00;27.83;22.8;
49686;PMS5003;36064;38.180;-122.272;2022-09-12T16:40:01;24.8;21.8;
49686;PMS5003;36064;38.180;-122.272;2022-09-12T16:45:00;24.2;21.6;
49686;PMS5003;36064;38.180;-122.272;2022-09-12T16:50:00;29.6;26.2;
49686;PMS5003;36064;38.180;-122.272;2022-09-12T16:55:02;26.4;25.4;
49686;PMS5003;36064;38.180;-122.272;2022-09-12T17:00:00;25.8;22.6;
49686;PMS5003;36064;38.180;-122.272;2022-09-12T17:05:00;24.6;22.0;
49686;PMS5003;36064;38.180;-122.272;2022-09-12T17:10:00;23.6;22.4;
49686;PMS5003;36064;38.180;-122.272;2022-09-12T17:15:00;24.6;24.0;
49686;PMS5003;36064;38.180;-122.272;2022-09-12T17:20:00;31.8;27.6;
49686;PMS5003;36064;38.180;-122.272;2022-09-12T17:25:01;25.6;24.0;
49686;PMS5003;36064;38.180;-122.272;2022-09-12T17:30:00;28.0;23.4;
49686;PMS5003;36064;38.180;-122.272;2022-09-12T17:35:00;21.33;19.94;
49686;PMS5003;36064;38.180;-122.272;2022-09-12T17:40:01;23.4;21.6;
49686;PMS5003;36064;38.180;-122.272;2022-09-12T17:45:02;26.6;23.0;
49686;PMS5003;36064;38.180;-122.272;2022-09-12T17:50:00;24.8;22.4;
49686;PMS5003;36064;38.180;-122.272;2022-09-12T17:55:00;27.2;23.6;
49686;PMS5003;36064;38.180;-122.272;2022-09-12T18:00:00;27.2;26.6;
49686;PMS5003;36064;38.180;-122.272;2022-09-12T18:05:02;27.2;25.2;
49686;PMS5003;36064;38.180;-122.272;2022-09-12T18:10:00;23.82;23.02;
49686;PMS5003;36064;38.180;-122.272;2022-09-12T18:15:00;29.8;27.2;
49686;PMS5003;36064;38.180;-122.272;2022-09-12T18:20:01;23.2;21.4;
49686;PMS5003;36064;38.180;-122.272;2022-09-12T18:25:00;25.0;23.2;
49686;PMS5003;36064;38.180;-122.272;2022-09-12T18:30:00;24.6;24.4;
49686;PMS5003;36064;38.180;-122.272;2022-09-12T18:35:01;23.98;23.98;
49686;PMS5003;36064;38.180;-122.272;2022-09-12T18:40:01;28.6;26.4;
49686;PMS5003;36064;38.180;-122.272;2022-09-12T18:45:00;23.8;23.4;
49686;PMS5003;36064;38.180;-122.272;2022-09-12T18:50:01;31.0;29.2;
49686;PMS5003;36064;38.180;-122.272;2022-09-12T19:00:00;27.6;25.4;
49686;PMS5003;36064;38.180;-122.272;2022-09-12T19:05:01;28.6;26.0;
49686;PMS5003;36064;38.180;-122.272;2022-09-12T19:10:00;28.6;25.0;
49686;PMS5003;36064;38.180;-122.272;2022-09-12T19:15:00;27.21;24.41;
49686;PMS5003;36064;38.180;-122.272;2022-09-12T19:20:01;30.0;27.8;
49686;PMS5003;36064;38.180;-122.272;2022-09-12T19:25:00;28.38;26.78;
49686;PMS5003;36064;38.180;-122.272;2022-09-12T19:30:00;25.8;25.2;
49686;PMS5003;36064;38.180;-122.272;2022-09-12T19:35:00;30.58;27.57;
49686;PMS5003;36064;38.180;-122.272;2022-09-12T19:40:01;26.81;23.79;
49686;PMS5003;36064;38.180;-122.272;2022-09-12T19:45:00;28.2;25.2;
49686;PMS5003;36064;38.180;-122.272;2022-09-12T19:50:01;29.61;28.01;
49686;PMS5003;36064;38.180;-122.272;2022-09-12T19:55:00;28.2;27.0;
49686;PMS5003;36064;38.180;-122.272;2022-09-12T20:00:00;30.4;28.4;
49686;PMS5003;36064;38.180;-122.272;2022-09-12T20:05:00;30.6;28.4;
49686;PMS5003;36064;38.180;-122.272;2022-09-12T20:10:00;25.99;23.98;
49686;PMS5003;36064;38.180;-122.272;2022-09-12T20:15:00;26.59;24.78;
49686;PMS5003;36064;38.180;-122.272;2022-09-12T20:20:00;26.41;26.01;
49686;PMS5003;36064;38.180;-122.272;2022-09-12T20:25:00;28.83;26.44;
49686;PMS5003;36064;38.180;-122.272;2022-09-12T20:30:00;25.2;23.8;
49686;PMS5003;36064;38.180;-122.272;2022-09-12T20:35:00;26.63;25.23;
49686;PMS5003;36064;38.180;-122.272;2022-09-12T20:40:01;28.8;26.0;
49686;PMS5003;36064;38.180;-122.272;2022-09-12T20:45:00;30.0;27.6;
49686;PMS5003;36064;38.180;-122.272;2022-09-12T20:50:00;25.4;23.6;
49686;PMS5003;36064;38.180;-122.272;2022-09-12T20:55:00;28.0;26.8;
49686;PMS5003;36064;38.180;-122.272;2022-09-12T21:00:00;27.89;24.06;
49686;PMS5003;36064;38.180;-122.272;2022-09-12T21:05:00;25.89;23.26;
49686;PMS5003;36064;38.180;-122.272;2022-09-12T21:10:00;25.2;23.0;
49686;PMS5003;36064;38.180;-122.272;2022-09-12T21:15:00;24.8;22.4;
49686;PMS5003;36064;38.180;-122.272;2022-09-12T21:20:01;29.2;25.4;
49686;PMS5003;36064;38.180;-122.272;2022-09-12T21:25:00;29.4;25.6;
49686;PMS5003;36064;38.180;-122.272;2022-09-12T21:30:00;25.0;23.6;
49686;PMS5003;36064;38.180;-122.272;2022-09-12T21:35:00;25.8;23.6;
49686;PMS5003;36064;38.180;-122.272;2022-09-12T21:40:01;25.56;20.17;
49686;PMS5003;36064;38.180;-122.272;2022-09-12T21:45:00;23.2;22.4;
49686;PMS5003;36064;38.180;-122.272;2022-09-12T21:50:00;20.8;19.2;
49686;PMS5003;36064;38.180;-122.272;2022-09-12T21:55:01;22.81;22.22;
49686;PMS5003;36064;38.180;-122.272;2022-09-12T22:00:00;22.6;21.2;
49686;PMS5003;36064;38.180;-122.272;2022-09-12T22:05:00;21.2;20.8;
49686;PMS5003;36064;38.180;-122.272;2022-09-12T22:10:00;24.2;22.4;
49686;PMS5003;36064;38.180;-122.272;2022-09-12T22:15:00;21.8;20.2;
49686;PMS5003;36064;38.180;-122.272;2022-09-12T22:20:01;21.8;20.2;
49686;PMS5003;36064;38.180;-122.272;2022-09-12T22:25:00;24.6;21.0;
49686;PMS5003;36064;38.180;-122.272;2022-09-12T22:30:00;27.0;25.4;
49686;PMS5003;36064;38.180;-122.272;2022-09-12T22:35:00;23.4;22.99;
49686;PMS5003;36064;38.180;-122.272;2022-09-12T22:40:01;23.21;21.42;
49686;PMS5003;36064;38.180;-122.272;2022-09-12T22:45:01;25.18;20.81;
49686;PMS5003;36064;38.180;-122.272;2022-09-12T22:50:00;21.6;20.0;
49686;PMS5003;36064;38.180;-122.272;2022-09-12T22:55:00;18.6;16.0;
49686;PMS5003;36064;38.180;-122.272;2022-09-12T23:00:00;17.4;15.19;
49686;PMS5003;36064;38.180;-122.272;2022-09-12T23:05:01;18.99;17.39;
49686;PMS5003;36064;38.180;-122.272;2022-09-12T23:10:00;17.23;16.01;
49686;PMS5003;36064;38.180;-122.272;2022-09-12T23:15:00;22.4;17.59;
49686;PMS5003;36064;38.180;-122.272;2022-09-12T23:20:01;19.8;16.2;
49686;PMS5003;36064;38.180;-122.272;2022-09-12T23:25:00;19.6;16.8;
49686;PMS5003;36064;38.180;-122.272;2022-09-12T23:30:00;21.83;20.43;
49686;PMS5003;36064;38.180;-122.272;2022-09-12T23:35:01;20.2;19.6;
49686;PMS5003;36064;38.180;-122.272;2022-09-12T23:40:01;20.4;19.2;
49686;PMS5003;36064;38.180;-122.272;2022-09-12T23:45:00;18.4;15.2;
49686;PMS5003;36064;38.180;-122.272;2022-09-12T23:50:00;15.2;14.0;
49686;PMS5003;36064;38.180;-122.272;2022-09-12T23:55:00;20.0;16.0;
